sensor_id;sensor_type;location;lat;lon;timestamp;P1;durP1;ratioP1;P2;durP2;ratioP2
55601;SDS011;59921;51.332;12.410;2023-07-08T00:00:51;1.77;;;1.65;;
55601;SDS011;59921;51.332;12.410;2023-07-08T00:03:18;1.92;;;1.60;;
55601;SDS011;59921;51.332;12.410;2023-07-08T00:05:44;2.28;;;1.50;;
55601;SDS011;59921;51.332;12.410;2023-07-08T00:08:12;2.13;;;1.50;;
55601;SDS011;59921;51.332;12.410;2023-07-08T00:10:39;1.70;;;1.40;;
55601;SDS011;59921;51.332;12.410;2023-07-08T00:13:05;1.65;;;1.40;;
55601;SDS011;59921;51.332;12.410;2023-07-08T00:15:31;1.77;;;1.50;;
55601;SDS011;59921;51.332;12.410;2023-07-08T00:18:00;1.48;;;1.38;;
55601;SDS011;59921;51.332;12.410;2023-07-08T00:20:35;1.90;;;1.50;;
55601;SDS011;59921;51.332;12.410;2023-07-08T00:23:03;1.50;;;1.30;;
55601;SDS011;59921;51.332;12.410;2023-07-08T00:25:30;1.58;;;1.40;;
55601;SDS011;59921;51.332;12.410;2023-07-08T00:27:57;1.67;;;1.58;;
55601;SDS011;59921;51.332;12.410;2023-07-08T00:30:24;2.00;;;1.73;;
55601;SDS011;59921;51.332;12.410;2023-07-08T00:32:51;1.75;;;1.50;;
55601;SDS011;59921;51.332;12.410;2023-07-08T00:35:21;1.50;;;1.33;;
55601;SDS011;59921;51.332;12.410;2023-07-08T00:37:52;2.10;;;1.55;;
55601;SDS011;59921;51.332;12.410;2023-07-08T00:40:19;1.55;;;1.45;;
55601;SDS011;59921;51.332;12.410;2023-07-08T00:42:46;1.58;;;1.45;;
55601;SDS011;59921;51.332;12.410;2023-07-08T00:45:46;1.30;;;1.17;;
55601;SDS011;59921;51.332;12.410;2023-07-08T00:48:15;1.55;;;1.45;;
55601;SDS011;59921;51.332;12.410;2023-07-08T00:50:53;1.80;;;1.50;;
55601;SDS011;59921;51.332;12.410;2023-07-08T00:55:51;2.00;;;1.50;;
55601;SDS011;59921;51.332;12.410;2023-07-08T00:58:19;1.45;;;1.35;;
55601;SDS011;59921;51.332;12.410;2023-07-08T01:00:47;1.65;;;1.50;;
55601;SDS011;59921;51.332;12.410;2023-07-08T01:03:15;1.98;;;1.70;;
55601;SDS011;59921;51.332;12.410;2023-07-08T01:05:43;2.00;;;1.70;;
55601;SDS011;59921;51.332;12.410;2023-07-08T01:08:10;1.73;;;1.50;;
55601;SDS011;59921;51.332;12.410;2023-07-08T01:10:37;2.00;;;1.60;;
55601;SDS011;59921;51.332;12.410;2023-07-08T01:13:08;1.60;;;1.50;;
55601;SDS011;59921;51.332;12.410;2023-07-08T01:15:39;1.63;;;1.50;;
55601;SDS011;59921;51.332;12.410;2023-07-08T01:18:08;2.13;;;1.63;;
55601;SDS011;59921;51.332;12.410;2023-07-08T01:20:35;1.70;;;1.40;;
55601;SDS011;59921;51.332;12.410;2023-07-08T01:23:02;2.13;;;1.50;;
55601;SDS011;59921;51.332;12.410;2023-07-08T01:25:30;1.90;;;1.50;;
55601;SDS011;59921;51.332;12.410;2023-07-08T01:27:56;1.60;;;1.50;;
55601;SDS011;59921;51.332;12.410;2023-07-08T01:30:22;1.70;;;1.50;;
55601;SDS011;59921;51.332;12.410;2023-07-08T01:32:49;1.42;;;1.33;;
55601;SDS011;59921;51.332;12.410;2023-07-08T01:35:17;1.90;;;1.60;;
55601;SDS011;59921;51.332;12.410;2023-07-08T01:37:50;1.95;;;1.65;;
55601;SDS011;59921;51.332;12.410;2023-07-08T01:42:44;1.70;;;1.25;;
55601;SDS011;59921;51.332;12.410;2023-07-08T01:45:14;1.52;;;1.30;;
55601;SDS011;59921;51.332;12.410;2023-07-08T01:47:41;1.60;;;1.50;;
55601;SDS011;59921;51.332;12.410;2023-07-08T01:50:10;1.58;;;1.33;;
55601;SDS011;59921;51.332;12.410;2023-07-08T01:52:37;1.70;;;1.60;;
55601;SDS011;59921;51.332;12.410;2023-07-08T01:55:03;1.90;;;1.52;;
55601;SDS011;59921;51.332;12.410;2023-07-08T01:57:29;1.52;;;1.40;;
55601;SDS011;59921;51.332;12.410;2023-07-08T01:59:55;1.75;;;1.48;;
55601;SDS011;59921;51.332;12.410;2023-07-08T02:02:20;1.80;;;1.63;;
55601;SDS011;59921;51.332;12.410;2023-07-08T02:04:49;1.60;;;1.40;;
55601;SDS011;59921;51.332;12.410;2023-07-08T02:07:15;1.63;;;1.50;;
55601;SDS011;59921;51.332;12.410;2023-07-08T02:09:40;1.50;;;1.40;;
55601;SDS011;59921;51.332;12.410;2023-07-08T02:12:06;1.55;;;1.38;;
55601;SDS011;59921;51.332;12.410;2023-07-08T02:14:32;1.60;;;1.50;;
55601;SDS011;59921;51.332;12.410;2023-07-08T02:16:57;1.92;;;1.60;;
55601;SDS011;59921;51.332;12.410;2023-07-08T02:19:23;1.80;;;1.50;;
55601;SDS011;59921;51.332;12.410;2023-07-08T02:21:49;1.50;;;1.40;;
55601;SDS011;59921;51.332;12.410;2023-07-08T02:24:17;2.00;;;1.65;;
55601;SDS011;59921;51.332;12.410;2023-07-08T02:26:43;2.20;;;1.60;;
55601;SDS011;59921;51.332;12.410;2023-07-08T02:29:08;1.67;;;1.45;;
55601;SDS011;59921;51.332;12.410;2023-07-08T02:31:34;1.40;;;1.30;;
55601;SDS011;59921;51.332;12.410;2023-07-08T02:33:59;1.73;;;1.50;;
55601;SDS011;59921;51.332;12.410;2023-07-08T02:36:27;1.80;;;1.50;;
55601;SDS011;59921;51.332;12.410;2023-07-08T02:38:53;1.75;;;1.55;;
55601;SDS011;59921;51.332;12.410;2023-07-08T02:41:18;1.58;;;1.48;;
55601;SDS011;59921;51.332;12.410;2023-07-08T02:43:44;2.30;;;1.70;;
55601;SDS011;59921;51.332;12.410;2023-07-08T02:46:10;2.10;;;1.48;;
55601;SDS011;59921;51.332;12.410;2023-07-08T02:48:36;1.90;;;1.60;;
55601;SDS011;59921;51.332;12.410;2023-07-08T02:51:02;2.38;;;1.60;;
55601;SDS011;59921;51.332;12.410;2023-07-08T02:53:29;1.83;;;1.50;;
55601;SDS011;59921;51.332;12.410;2023-07-08T02:55:55;1.80;;;1.50;;
55601;SDS011;59921;51.332;12.410;2023-07-08T02:58:21;2.00;;;1.45;;
55601;SDS011;59921;51.332;12.410;2023-07-08T03:00:56;1.58;;;1.48;;
55601;SDS011;59921;51.332;12.410;2023-07-08T03:03:26;1.42;;;1.27;;
55601;SDS011;59921;51.332;12.410;2023-07-08T03:05:58;1.55;;;1.40;;
55601;SDS011;59921;51.332;12.410;2023-07-08T03:08:27;1.70;;;1.60;;
55601;SDS011;59921;51.332;12.410;2023-07-08T03:10:57;1.92;;;1.40;;
55601;SDS011;59921;51.332;12.410;2023-07-08T03:13:25;1.40;;;1.30;;
55601;SDS011;59921;51.332;12.410;2023-07-08T03:15:52;1.33;;;1.20;;
55601;SDS011;59921;51.332;12.410;2023-07-08T03:18:17;1.58;;;1.48;;
55601;SDS011;59921;51.332;12.410;2023-07-08T03:20:43;1.50;;;1.40;;
55601;SDS011;59921;51.332;12.410;2023-07-08T03:23:10;2.15;;;1.60;;
55601;SDS011;59921;51.332;12.410;2023-07-08T03:25:36;1.48;;;1.38;;
55601;SDS011;59921;51.332;12.410;2023-07-08T03:28:03;1.70;;;1.40;;
55601;SDS011;59921;51.332;12.410;2023-07-08T03:30:31;1.73;;;1.60;;
55601;SDS011;59921;51.332;12.410;2023-07-08T03:32:58;1.73;;;1.50;;
55601;SDS011;59921;51.332;12.410;2023-07-08T03:35:24;2.50;;;1.73;;
55601;SDS011;59921;51.332;12.410;2023-07-08T03:37:50;1.85;;;1.52;;
55601;SDS011;59921;51.332;12.410;2023-07-08T03:40:16;3.28;;;1.50;;
55601;SDS011;59921;51.332;12.410;2023-07-08T03:42:42;1.52;;;1.40;;
55601;SDS011;59921;51.332;12.410;2023-07-08T03:45:08;1.60;;;1.50;;
55601;SDS011;59921;51.332;12.410;2023-07-08T03:47:34;1.60;;;1.48;;
55601;SDS011;59921;51.332;12.410;2023-07-08T03:49:59;1.65;;;1.50;;
55601;SDS011;59921;51.332;12.410;2023-07-08T03:52:25;1.75;;;1.58;;
55601;SDS011;59921;51.332;12.410;2023-07-08T03:54:50;1.80;;;1.35;;
55601;SDS011;59921;51.332;12.410;2023-07-08T03:57:16;1.67;;;1.33;;
55601;SDS011;59921;51.332;12.410;2023-07-08T03:59:41;2.17;;;1.77;;
55601;SDS011;59921;51.332;12.410;2023-07-08T04:02:10;1.60;;;1.40;;
55601;SDS011;59921;51.332;12.410;2023-07-08T04:04:36;1.75;;;1.40;;
55601;SDS011;59921;51.332;12.410;2023-07-08T04:07:05;1.58;;;1.30;;
55601;SDS011;59921;51.332;12.410;2023-07-08T04:09:31;1.73;;;1.60;;
55601;SDS011;59921;51.332;12.410;2023-07-08T04:11:57;1.90;;;1.60;;
55601;SDS011;59921;51.332;12.410;2023-07-08T04:14:25;1.80;;;1.30;;
55601;SDS011;59921;51.332;12.410;2023-07-08T04:16:52;2.22;;;1.40;;
55601;SDS011;59921;51.332;12.410;2023-07-08T04:19:22;1.40;;;1.27;;
55601;SDS011;59921;51.332;12.410;2023-07-08T04:21:49;2.00;;;1.52;;
55601;SDS011;59921;51.332;12.410;2023-07-08T04:24:15;1.50;;;1.40;;
55601;SDS011;59921;51.332;12.410;2023-07-08T04:26:42;2.10;;;1.55;;
55601;SDS011;59921;51.332;12.410;2023-07-08T04:29:11;1.52;;;1.42;;
55601;SDS011;59921;51.332;12.410;2023-07-08T04:31:38;1.40;;;1.30;;
55601;SDS011;59921;51.332;12.410;2023-07-08T04:34:04;1.63;;;1.52;;
55601;SDS011;59921;51.332;12.410;2023-07-08T04:36:31;1.42;;;1.33;;
55601;SDS011;59921;51.332;12.410;2023-07-08T04:38:57;1.90;;;1.52;;
55601;SDS011;59921;51.332;12.410;2023-07-08T04:41:23;1.63;;;1.52;;
55601;SDS011;59921;51.332;12.410;2023-07-08T04:43:51;1.80;;;1.50;;
55601;SDS011;59921;51.332;12.410;2023-07-08T04:46:39;1.67;;;1.35;;
55601;SDS011;59921;51.332;12.410;2023-07-08T04:49:08;2.00;;;1.40;;
55601;SDS011;59921;51.332;12.410;2023-07-08T04:51:35;1.60;;;1.40;;
55601;SDS011;59921;51.332;12.410;2023-07-08T04:54:01;1.25;;;1.15;;
55601;SDS011;59921;51.332;12.410;2023-07-08T04:56:35;1.63;;;1.52;;
55601;SDS011;59921;51.332;12.410;2023-07-08T04:59:09;1.73;;;1.50;;
55601;SDS011;59921;51.332;12.410;2023-07-08T05:01:35;1.70;;;1.40;;
55601;SDS011;59921;51.332;12.410;2023-07-08T05:04:01;1.83;;;1.27;;
55601;SDS011;59921;51.332;12.410;2023-07-08T05:06:30;1.55;;;1.45;;
55601;SDS011;59921;51.332;12.410;2023-07-08T05:08:57;1.55;;;1.35;;
55601;SDS011;59921;51.332;12.410;2023-07-08T05:11:23;1.45;;;1.30;;
55601;SDS011;59921;51.332;12.410;2023-07-08T05:13:48;2.10;;;1.65;;
55601;SDS011;59921;51.332;12.410;2023-07-08T05:16:15;1.48;;;1.20;;
55601;SDS011;59921;51.332;12.410;2023-07-08T05:18:40;1.45;;;1.30;;
55601;SDS011;59921;51.332;12.410;2023-07-08T05:21:06;1.50;;;1.33;;
55601;SDS011;59921;51.332;12.410;2023-07-08T05:23:33;1.40;;;1.30;;
55601;SDS011;59921;51.332;12.410;2023-07-08T05:25:59;1.52;;;1.42;;
55601;SDS011;59921;51.332;12.410;2023-07-08T05:28:26;2.10;;;1.48;;
55601;SDS011;59921;51.332;12.410;2023-07-08T05:30:54;1.52;;;1.33;;
55601;SDS011;59921;51.332;12.410;2023-07-08T05:33:21;1.42;;;1.30;;
55601;SDS011;59921;51.332;12.410;2023-07-08T05:35:51;1.30;;;1.20;;
55601;SDS011;59921;51.332;12.410;2023-07-08T05:38:17;1.83;;;1.33;;
55601;SDS011;59921;51.332;12.410;2023-07-08T05:40:43;2.10;;;1.40;;
55601;SDS011;59921;51.332;12.410;2023-07-08T05:43:15;1.40;;;1.30;;
55601;SDS011;59921;51.332;12.410;2023-07-08T05:45:41;1.55;;;1.30;;
55601;SDS011;59921;51.332;12.410;2023-07-08T05:48:07;1.80;;;1.60;;
55601;SDS011;59921;51.332;12.410;2023-07-08T05:50:32;1.50;;;1.27;;
55601;SDS011;59921;51.332;12.410;2023-07-08T05:52:58;1.58;;;1.20;;
55601;SDS011;59921;51.332;12.410;2023-07-08T05:55:23;1.63;;;1.38;;
55601;SDS011;59921;51.332;12.410;2023-07-08T05:57:49;1.60;;;1.30;;
55601;SDS011;59921;51.332;12.410;2023-07-08T06:00:14;1.27;;;1.17;;
55601;SDS011;59921;51.332;12.410;2023-07-08T06:02:40;1.38;;;1.13;;
55601;SDS011;59921;51.332;12.410;2023-07-08T06:05:06;1.42;;;1.30;;
55601;SDS011;59921;51.332;12.410;2023-07-08T06:07:32;1.23;;;1.13;;
55601;SDS011;59921;51.332;12.410;2023-07-08T06:09:57;1.30;;;1.20;;
55601;SDS011;59921;51.332;12.410;2023-07-08T06:12:23;1.38;;;1.25;;
55601;SDS011;59921;51.332;12.410;2023-07-08T06:14:49;2.08;;;1.52;;
55601;SDS011;59921;51.332;12.410;2023-07-08T06:17:15;1.35;;;1.23;;
55601;SDS011;59921;51.332;12.410;2023-07-08T06:19:41;1.30;;;1.20;;
55601;SDS011;59921;51.332;12.410;2023-07-08T06:22:07;1.27;;;1.17;;
55601;SDS011;59921;51.332;12.410;2023-07-08T06:24:33;1.30;;;1.10;;
55601;SDS011;59921;51.332;12.410;2023-07-08T06:26:58;1.35;;;1.20;;
55601;SDS011;59921;51.332;12.410;2023-07-08T06:29:24;1.20;;;1.10;;
55601;SDS011;59921;51.332;12.410;2023-07-08T06:31:50;1.10;;;1.00;;
55601;SDS011;59921;51.332;12.410;2023-07-08T06:34:15;1.20;;;1.10;;
55601;SDS011;59921;51.332;12.410;2023-07-08T06:36:41;1.67;;;1.17;;
55601;SDS011;59921;51.332;12.410;2023-07-08T06:39:07;1.50;;;1.25;;
55601;SDS011;59921;51.332;12.410;2023-07-08T06:41:34;1.35;;;1.10;;
55601;SDS011;59921;51.332;12.410;2023-07-08T06:43:59;1.40;;;1.30;;
55601;SDS011;59921;51.332;12.410;2023-07-08T06:46:25;1.30;;;1.20;;
55601;SDS011;59921;51.332;12.410;2023-07-08T06:48:51;1.30;;;1.20;;
55601;SDS011;59921;51.332;12.410;2023-07-08T06:51:16;1.40;;;1.30;;
55601;SDS011;59921;51.332;12.410;2023-07-08T06:53:42;2.03;;;1.40;;
55601;SDS011;59921;51.332;12.410;2023-07-08T06:56:07;2.15;;;1.38;;
55601;SDS011;59921;51.332;12.410;2023-07-08T06:58:33;1.23;;;1.10;;
55601;SDS011;59921;51.332;12.410;2023-07-08T07:00:59;1.40;;;1.30;;
55601;SDS011;59921;51.332;12.410;2023-07-08T07:03:25;1.38;;;1.27;;
55601;SDS011;59921;51.332;12.410;2023-07-08T07:05:51;1.20;;;1.10;;
55601;SDS011;59921;51.332;12.410;2023-07-08T07:08:16;1.50;;;1.40;;
55601;SDS011;59921;51.332;12.410;2023-07-08T07:10:42;1.20;;;1.10;;
55601;SDS011;59921;51.332;12.410;2023-07-08T07:13:08;1.33;;;1.10;;
55601;SDS011;59921;51.332;12.410;2023-07-08T07:15:34;1.20;;;1.10;;
55601;SDS011;59921;51.332;12.410;2023-07-08T07:18:00;1.20;;;1.10;;
55601;SDS011;59921;51.332;12.410;2023-07-08T07:20:26;1.10;;;1.00;;
55601;SDS011;59921;51.332;12.410;2023-07-08T07:22:52;1.38;;;1.20;;
55601;SDS011;59921;51.332;12.410;2023-07-08T07:25:18;1.13;;;0.90;;
55601;SDS011;59921;51.332;12.410;2023-07-08T07:27:44;1.33;;;1.02;;
55601;SDS011;59921;51.332;12.410;2023-07-08T07:30:10;2.00;;;1.27;;
55601;SDS011;59921;51.332;12.410;2023-07-08T07:32:40;1.30;;;1.20;;
55601;SDS011;59921;51.332;12.410;2023-07-08T07:35:07;1.10;;;1.00;;
55601;SDS011;59921;51.332;12.410;2023-07-08T07:37:38;0.95;;;0.90;;
55601;SDS011;59921;51.332;12.410;2023-07-08T07:40:04;1.50;;;1.30;;
55601;SDS011;59921;51.332;12.410;2023-07-08T07:42:39;1.20;;;1.00;;
55601;SDS011;59921;51.332;12.410;2023-07-08T07:45:05;1.23;;;1.10;;
55601;SDS011;59921;51.332;12.410;2023-07-08T07:47:32;1.30;;;1.10;;
55601;SDS011;59921;51.332;12.410;2023-07-08T07:49:57;1.20;;;1.10;;
55601;SDS011;59921;51.332;12.410;2023-07-08T07:52:24;1.30;;;1.20;;
55601;SDS011;59921;51.332;12.410;2023-07-08T07:54:53;1.20;;;1.10;;
55601;SDS011;59921;51.332;12.410;2023-07-08T07:57:19;1.30;;;1.10;;
55601;SDS011;59921;51.332;12.410;2023-07-08T07:59:46;1.38;;;1.10;;
55601;SDS011;59921;51.332;12.410;2023-07-08T08:02:12;1.20;;;1.10;;
55601;SDS011;59921;51.332;12.410;2023-07-08T08:04:38;1.10;;;1.00;;
55601;SDS011;59921;51.332;12.410;2023-07-08T08:07:04;1.20;;;1.10;;
55601;SDS011;59921;51.332;12.410;2023-07-08T08:09:29;1.10;;;1.00;;
55601;SDS011;59921;51.332;12.410;2023-07-08T08:11:55;0.95;;;0.95;;
55601;SDS011;59921;51.332;12.410;2023-07-08T08:14:21;1.20;;;1.10;;
55601;SDS011;59921;51.332;12.410;2023-07-08T08:16:47;1.20;;;1.10;;
55601;SDS011;59921;51.332;12.410;2023-07-08T08:19:13;1.23;;;1.08;;
55601;SDS011;59921;51.332;12.410;2023-07-08T08:21:38;1.23;;;1.13;;
55601;SDS011;59921;51.332;12.410;2023-07-08T08:24:04;1.33;;;1.23;;
55601;SDS011;59921;51.332;12.410;2023-07-08T08:26:30;0.95;;;0.90;;
55601;SDS011;59921;51.332;12.410;2023-07-08T08:28:56;1.17;;;1.08;;
55601;SDS011;59921;51.332;12.410;2023-07-08T08:31:22;1.08;;;0.98;;
55601;SDS011;59921;51.332;12.410;2023-07-08T08:33:49;1.17;;;0.90;;
55601;SDS011;59921;51.332;12.410;2023-07-08T08:36:16;1.10;;;1.00;;
55601;SDS011;59921;51.332;12.410;2023-07-08T08:38:42;1.08;;;0.98;;
55601;SDS011;59921;51.332;12.410;2023-07-08T08:41:17;1.02;;;0.93;;
55601;SDS011;59921;51.332;12.410;2023-07-08T08:43:44;1.13;;;1.02;;
55601;SDS011;59921;51.332;12.410;2023-07-08T08:46:16;1.15;;;1.05;;
55601;SDS011;59921;51.332;12.410;2023-07-08T08:48:58;1.10;;;1.00;;
55601;SDS011;59921;51.332;12.410;2023-07-08T08:51:30;1.15;;;1.05;;
55601;SDS011;59921;51.332;12.410;2023-07-08T08:53:57;1.23;;;1.02;;
55601;SDS011;59921;51.332;12.410;2023-07-08T08:56:47;1.17;;;1.08;;
55601;SDS011;59921;51.332;12.410;2023-07-08T08:59:19;1.10;;;1.00;;
55601;SDS011;59921;51.332;12.410;2023-07-08T09:01:56;1.20;;;1.10;;
55601;SDS011;59921;51.332;12.410;2023-07-08T09:04:24;1.30;;;1.00;;
55601;SDS011;59921;51.332;12.410;2023-07-08T09:06:56;1.10;;;1.00;;
55601;SDS011;59921;51.332;12.410;2023-07-08T09:09:35;1.10;;;1.00;;
55601;SDS011;59921;51.332;12.410;2023-07-08T09:12:13;1.05;;;0.95;;
55601;SDS011;59921;51.332;12.410;2023-07-08T09:14:49;1.20;;;1.05;;
55601;SDS011;59921;51.332;12.410;2023-07-08T09:22:30;1.20;;;1.00;;
55601;SDS011;59921;51.332;12.410;2023-07-08T09:27:40;0.75;;;0.75;;
55601;SDS011;59921;51.332;12.410;2023-07-08T09:30:09;0.90;;;0.90;;
55601;SDS011;59921;51.332;12.410;2023-07-08T09:32:40;1.20;;;1.10;;
55601;SDS011;59921;51.332;12.410;2023-07-08T09:35:07;1.17;;;1.08;;
55601;SDS011;59921;51.332;12.410;2023-07-08T09:37:38;1.00;;;0.90;;
55601;SDS011;59921;51.332;12.410;2023-07-08T09:40:04;1.30;;;1.20;;
55601;SDS011;59921;51.332;12.410;2023-07-08T09:42:41;0.95;;;0.85;;
55601;SDS011;59921;51.332;12.410;2023-07-08T09:45:12;1.15;;;1.00;;
55601;SDS011;59921;51.332;12.410;2023-07-08T09:47:39;1.10;;;1.00;;
55601;SDS011;59921;51.332;12.410;2023-07-08T09:50:19;1.15;;;1.05;;
55601;SDS011;59921;51.332;12.410;2023-07-08T09:52:46;0.90;;;0.90;;
55601;SDS011;59921;51.332;12.410;2023-07-08T09:55:16;1.17;;;1.08;;
55601;SDS011;59921;51.332;12.410;2023-07-08T09:57:43;1.10;;;1.00;;
55601;SDS011;59921;51.332;12.410;2023-07-08T10:00:13;1.20;;;1.10;;
55601;SDS011;59921;51.332;12.410;2023-07-08T10:02:54;0.90;;;0.90;;
55601;SDS011;59921;51.332;12.410;2023-07-08T10:05:41;1.08;;;0.98;;
55601;SDS011;59921;51.332;12.410;2023-07-08T10:08:41;1.10;;;1.00;;
55601;SDS011;59921;51.332;12.410;2023-07-08T10:11:22;1.45;;;1.10;;
55601;SDS011;59921;51.332;12.410;2023-07-08T10:13:52;1.08;;;0.98;;
55601;SDS011;59921;51.332;12.410;2023-07-08T10:18:56;1.42;;;1.00;;
55601;SDS011;59921;51.332;12.410;2023-07-08T10:23:51;1.10;;;1.00;;
55601;SDS011;59921;51.332;12.410;2023-07-08T10:26:26;1.30;;;1.20;;
55601;SDS011;59921;51.332;12.410;2023-07-08T10:29:08;1.17;;;1.08;;
55601;SDS011;59921;51.332;12.410;2023-07-08T10:31:41;1.15;;;1.05;;
55601;SDS011;59921;51.332;12.410;2023-07-08T10:45:44;1.13;;;1.00;;
55601;SDS011;59921;51.332;12.410;2023-07-08T10:51:31;1.17;;;1.08;;
55601;SDS011;59921;51.332;12.410;2023-07-08T11:05:12;1.10;;;1.00;;
55601;SDS011;59921;51.332;12.410;2023-07-08T11:07:57;1.00;;;0.90;;
55601;SDS011;59921;51.332;12.410;2023-07-08T11:10:29;1.38;;;1.15;;
55601;SDS011;59921;51.332;12.410;2023-07-08T11:13:24;1.30;;;1.00;;
55601;SDS011;59921;51.332;12.410;2023-07-08T11:16:10;1.20;;;1.10;;
55601;SDS011;59921;51.332;12.410;2023-07-08T11:21:41;1.13;;;1.00;;
55601;SDS011;59921;51.332;12.410;2023-07-08T11:27:01;1.00;;;0.90;;
55601;SDS011;59921;51.332;12.410;2023-07-08T11:29:42;1.30;;;1.20;;
55601;SDS011;59921;51.332;12.410;2023-07-08T11:32:14;1.20;;;1.10;;
55601;SDS011;59921;51.332;12.410;2023-07-08T11:34:43;1.30;;;1.20;;
55601;SDS011;59921;51.332;12.410;2023-07-08T11:37:11;1.10;;;1.00;;
55601;SDS011;59921;51.332;12.410;2023-07-08T11:39:40;1.15;;;1.00;;
55601;SDS011;59921;51.332;12.410;2023-07-08T11:45:00;2.53;;;1.10;;
55601;SDS011;59921;51.332;12.410;2023-07-08T11:47:35;1.15;;;1.05;;
55601;SDS011;59921;51.332;12.410;2023-07-08T11:50:39;1.42;;;0.93;;
55601;SDS011;59921;51.332;12.410;2023-07-08T11:53:02;1.20;;;1.10;;
55601;SDS011;59921;51.332;12.410;2023-07-08T11:58:06;1.08;;;0.98;;
55601;SDS011;59921;51.332;12.410;2023-07-08T12:00:33;1.42;;;1.10;;
55601;SDS011;59921;51.332;12.410;2023-07-08T12:03:21;1.40;;;1.13;;
55601;SDS011;59921;51.332;12.410;2023-07-08T12:05:46;1.13;;;1.00;;
55601;SDS011;59921;51.332;12.410;2023-07-08T12:08:13;1.20;;;1.10;;
55601;SDS011;59921;51.332;12.410;2023-07-08T12:10:41;1.20;;;1.10;;
55601;SDS011;59921;51.332;12.410;2023-07-08T12:13:15;1.13;;;1.03;;
55601;SDS011;59921;51.332;12.410;2023-07-08T12:15:43;0.98;;;0.88;;
55601;SDS011;59921;51.332;12.410;2023-07-08T12:18:15;1.00;;;0.90;;
55601;SDS011;59921;51.332;12.410;2023-07-08T12:20:59;1.10;;;1.00;;
55601;SDS011;59921;51.332;12.410;2023-07-08T12:23:27;1.30;;;1.20;;
55601;SDS011;59921;51.332;12.410;2023-07-08T12:25:54;1.30;;;1.20;;
55601;SDS011;59921;51.332;12.410;2023-07-08T12:28:21;1.08;;;0.98;;
55601;SDS011;59921;51.332;12.410;2023-07-08T12:30:47;1.25;;;1.15;;
55601;SDS011;59921;51.332;12.410;2023-07-08T12:36:02;1.40;;;1.10;;
55601;SDS011;59921;51.332;12.410;2023-07-08T12:38:33;1.30;;;1.20;;
55601;SDS011;59921;51.332;12.410;2023-07-08T12:41:07;1.20;;;1.10;;
55601;SDS011;59921;51.332;12.410;2023-07-08T12:43:35;1.30;;;1.10;;
55601;SDS011;59921;51.332;12.410;2023-07-08T12:46:00;1.20;;;1.10;;
55601;SDS011;59921;51.332;12.410;2023-07-08T12:48:33;1.00;;;0.90;;
55601;SDS011;59921;51.332;12.410;2023-07-08T12:50:59;1.23;;;1.13;;
55601;SDS011;59921;51.332;12.410;2023-07-08T12:53:24;1.10;;;1.00;;
55601;SDS011;59921;51.332;12.410;2023-07-08T12:55:50;1.15;;;1.05;;
55601;SDS011;59921;51.332;12.410;2023-07-08T12:58:27;0.95;;;0.95;;
55601;SDS011;59921;51.332;12.410;2023-07-08T13:00:55;1.00;;;0.90;;
55601;SDS011;59921;51.332;12.410;2023-07-08T13:03:24;0.95;;;0.85;;
55601;SDS011;59921;51.332;12.410;2023-07-08T13:05:52;1.23;;;1.00;;
55601;SDS011;59921;51.332;12.410;2023-07-08T13:08:23;1.10;;;1.00;;
55601;SDS011;59921;51.332;12.410;2023-07-08T13:10:51;1.17;;;1.08;;
55601;SDS011;59921;51.332;12.410;2023-07-08T13:13:22;1.35;;;1.25;;
55601;SDS011;59921;51.332;12.410;2023-07-08T13:15:50;0.80;;;0.80;;
55601;SDS011;59921;51.332;12.410;2023-07-08T13:21:02;0.85;;;0.82;;
55601;SDS011;59921;51.332;12.410;2023-07-08T13:23:30;1.10;;;1.00;;
55601;SDS011;59921;51.332;12.410;2023-07-08T13:25:56;1.10;;;1.00;;
55601;SDS011;59921;51.332;12.410;2023-07-08T13:30:54;1.15;;;1.05;;
55601;SDS011;59921;51.332;12.410;2023-07-08T13:33:22;1.13;;;1.00;;
55601;SDS011;59921;51.332;12.410;2023-07-08T13:35:49;0.93;;;0.93;;
55601;SDS011;59921;51.332;12.410;2023-07-08T13:38:23;1.00;;;0.95;;
55601;SDS011;59921;51.332;12.410;2023-07-08T13:40:54;1.15;;;0.90;;
55601;SDS011;59921;51.332;12.410;2023-07-08T13:43:25;1.25;;;1.15;;
55601;SDS011;59921;51.332;12.410;2023-07-08T13:45:53;0.82;;;0.82;;
55601;SDS011;59921;51.332;12.410;2023-07-08T13:50:57;1.00;;;0.90;;
55601;SDS011;59921;51.332;12.410;2023-07-08T13:53:33;1.25;;;0.98;;
55601;SDS011;59921;51.332;12.410;2023-07-08T13:56:11;1.05;;;0.95;;
55601;SDS011;59921;51.332;12.410;2023-07-08T13:58:43;1.10;;;1.00;;
55601;SDS011;59921;51.332;12.410;2023-07-08T14:01:14;0.90;;;0.80;;
55601;SDS011;59921;51.332;12.410;2023-07-08T14:03:48;0.98;;;0.98;;
55601;SDS011;59921;51.332;12.410;2023-07-08T14:06:15;1.15;;;1.05;;
55601;SDS011;59921;51.332;12.410;2023-07-08T14:08:42;1.10;;;1.00;;
55601;SDS011;59921;51.332;12.410;2023-07-08T14:11:08;1.02;;;0.93;;
55601;SDS011;59921;51.332;12.410;2023-07-08T14:13:34;0.93;;;0.90;;
55601;SDS011;59921;51.332;12.410;2023-07-08T14:16:00;1.23;;;0.98;;
55601;SDS011;59921;51.332;12.410;2023-07-08T14:18:26;1.10;;;1.00;;
55601;SDS011;59921;51.332;12.410;2023-07-08T14:20:52;1.15;;;1.00;;
55601;SDS011;59921;51.332;12.410;2023-07-08T14:23:19;1.20;;;1.10;;
55601;SDS011;59921;51.332;12.410;2023-07-08T14:25:45;0.95;;;0.90;;
55601;SDS011;59921;51.332;12.410;2023-07-08T14:28:11;1.20;;;1.10;;
55601;SDS011;59921;51.332;12.410;2023-07-08T14:30:40;1.40;;;1.20;;
55601;SDS011;59921;51.332;12.410;2023-07-08T14:33:12;1.17;;;1.08;;
55601;SDS011;59921;51.332;12.410;2023-07-08T14:35:39;1.20;;;1.10;;
55601;SDS011;59921;51.332;12.410;2023-07-08T14:38:09;0.98;;;0.95;;
55601;SDS011;59921;51.332;12.410;2023-07-08T14:40:37;0.75;;;0.75;;
55601;SDS011;59921;51.332;12.410;2023-07-08T14:43:05;1.05;;;0.95;;
55601;SDS011;59921;51.332;12.410;2023-07-08T14:45:33;0.90;;;0.80;;
55601;SDS011;59921;51.332;12.410;2023-07-08T14:48:09;1.00;;;0.90;;
55601;SDS011;59921;51.332;12.410;2023-07-08T14:50:36;1.20;;;1.10;;
55601;SDS011;59921;51.332;12.410;2023-07-08T14:53:02;1.27;;;1.10;;
55601;SDS011;59921;51.332;12.410;2023-07-08T14:55:29;1.05;;;0.95;;
55601;SDS011;59921;51.332;12.410;2023-07-08T14:57:54;1.30;;;1.10;;
55601;SDS011;59921;51.332;12.410;2023-07-08T15:00:22;1.00;;;0.98;;
55601;SDS011;59921;51.332;12.410;2023-07-08T15:02:48;1.23;;;1.00;;
55601;SDS011;59921;51.332;12.410;2023-07-08T15:05:26;1.10;;;1.00;;
55601;SDS011;59921;51.332;12.410;2023-07-08T15:07:56;1.48;;;1.08;;
55601;SDS011;59921;51.332;12.410;2023-07-08T15:10:24;1.42;;;1.00;;
55601;SDS011;59921;51.332;12.410;2023-07-08T15:12:51;1.20;;;1.08;;
55601;SDS011;59921;51.332;12.410;2023-07-08T15:15:30;1.05;;;0.95;;
55601;SDS011;59921;51.332;12.410;2023-07-08T15:17:57;1.10;;;1.00;;
55601;SDS011;59921;51.332;12.410;2023-07-08T15:20:24;1.10;;;1.00;;
55601;SDS011;59921;51.332;12.410;2023-07-08T15:22:50;1.48;;;1.25;;
55601;SDS011;59921;51.332;12.410;2023-07-08T15:25:16;1.15;;;1.00;;
55601;SDS011;59921;51.332;12.410;2023-07-08T15:27:44;1.23;;;1.13;;
55601;SDS011;59921;51.332;12.410;2023-07-08T15:30:19;1.20;;;1.10;;
55601;SDS011;59921;51.332;12.410;2023-07-08T15:32:47;1.23;;;1.13;;
55601;SDS011;59921;51.332;12.410;2023-07-08T15:35:17;1.00;;;0.90;;
55601;SDS011;59921;51.332;12.410;2023-07-08T15:37:44;1.10;;;1.00;;
55601;SDS011;59921;51.332;12.410;2023-07-08T15:40:12;1.20;;;1.10;;
55601;SDS011;59921;51.332;12.410;2023-07-08T15:42:41;0.85;;;0.82;;
55601;SDS011;59921;51.332;12.410;2023-07-08T15:45:12;1.35;;;0.80;;
55601;SDS011;59921;51.332;12.410;2023-07-08T15:47:41;1.00;;;0.90;;